sensor_id;sensor_type;location;lat;lon;timestamp;temperature;humidity
18043;DHT22;9146;48.074;11.968;2022-09-17T00:02:25;9.20;99.90
18043;DHT22;9146;48.074;11.968;2022-09-17T00:04:54;9.10;99.90
18043;DHT22;9146;48.074;11.968;2022-09-17T00:07:22;9.10;99.90
18043;DHT22;9146;48.074;11.968;2022-09-17T00:09:48;9.10;99.90
18043;DHT22;9146;48.074;11.968;2022-09-17T00:12:15;9.10;99.90
18043;DHT22;9146;48.074;11.968;2022-09-17T00:14:44;9.10;99.90
18043;DHT22;9146;48.074;11.968;2022-09-17T00:17:11;9.10;99.90
18043;DHT22;9146;48.074;11.968;2022-09-17T00:19:38;9.20;99.90
18043;DHT22;9146;48.074;11.968;2022-09-17T00:22:05;9.20;99.90
18043;DHT22;9146;48.074;11.968;2022-09-17T00:24:32;9.20;99.90
18043;DHT22;9146;48.074;11.968;2022-09-17T00:26:59;9.20;99.90
18043;DHT22;9146;48.074;11.968;2022-09-17T00:29:26;9.20;99.90
18043;DHT22;9146;48.074;11.968;2022-09-17T00:31:54;9.30;99.90
18043;DHT22;9146;48.074;11.968;2022-09-17T00:34:21;9.30;99.90
18043;DHT22;9146;48.074;11.968;2022-09-17T00:36:48;9.30;99.90
18043;DHT22;9146;48.074;11.968;2022-09-17T00:39:15;9.30;99.90
18043;DHT22;9146;48.074;11.968;2022-09-17T00:41:42;9.30;99.90
18043;DHT22;9146;48.074;11.968;2022-09-17T00:44:39;9.30;99.90
18043;DHT22;9146;48.074;11.968;2022-09-17T00:47:12;9.30;99.90
18043;DHT22;9146;48.074;11.968;2022-09-17T00:49:40;9.20;99.90
18043;DHT22;9146;48.074;11.968;2022-09-17T00:52:11;9.20;99.90
18043;DHT22;9146;48.074;11.968;2022-09-17T00:54:41;9.20;99.90
18043;DHT22;9146;48.074;11.968;2022-09-17T00:57:10;9.10;99.90
18043;DHT22;9146;48.074;11.968;2022-09-17T00:59:37;9.10;99.90
18043;DHT22;9146;48.074;11.968;2022-09-17T01:02:04;9.10;99.90
18043;DHT22;9146;48.074;11.968;2022-09-17T01:04:33;9.00;99.90
18043;DHT22;9146;48.074;11.968;2022-09-17T01:07:05;9.00;99.90
18043;DHT22;9146;48.074;11.968;2022-09-17T01:09:40;9.00;99.90
18043;DHT22;9146;48.074;11.968;2022-09-17T01:15:09;8.90;99.90
18043;DHT22;9146;48.074;11.968;2022-09-17T01:17:44;8.90;99.90
18043;DHT22;9146;48.074;11.968;2022-09-17T01:23:39;8.90;99.90
18043;DHT22;9146;48.074;11.968;2022-09-17T01:26:24;8.90;99.90
18043;DHT22;9146;48.074;11.968;2022-09-17T01:29:02;8.80;99.90
18043;DHT22;9146;48.074;11.968;2022-09-17T01:31:36;8.80;99.90
18043;DHT22;9146;48.074;11.968;2022-09-17T01:34:15;8.80;99.90
18043;DHT22;9146;48.074;11.968;2022-09-17T01:36:53;8.80;99.90
18043;DHT22;9146;48.074;11.968;2022-09-17T01:39:29;8.70;99.90
18043;DHT22;9146;48.074;11.968;2022-09-17T01:42:04;8.70;99.90
18043;DHT22;9146;48.074;11.968;2022-09-17T01:44:39;8.60;99.90
18043;DHT22;9146;48.074;11.968;2022-09-17T01:47:14;8.60;99.90
18043;DHT22;9146;48.074;11.968;2022-09-17T01:49:43;8.50;99.90
18043;DHT22;9146;48.074;11.968;2022-09-17T01:52:12;8.50;99.90
18043;DHT22;9146;48.074;11.968;2022-09-17T01:54:43;8.40;99.90
18043;DHT22;9146;48.074;11.968;2022-09-17T01:57:14;8.30;99.90
18043;DHT22;9146;48.074;11.968;2022-09-17T01:59:46;8.30;99.90
18043;DHT22;9146;48.074;11.968;2022-09-17T02:02:19;8.20;99.90
18043;DHT22;9146;48.074;11.968;2022-09-17T02:04:54;8.20;99.90
18043;DHT22;9146;48.074;11.968;2022-09-17T02:07:23;8.20;99.90
18043;DHT22;9146;48.074;11.968;2022-09-17T02:09:54;8.20;99.90
18043;DHT22;9146;48.074;11.968;2022-09-17T02:12:28;8.30;99.90
18043;DHT22;9146;48.074;11.968;2022-09-17T02:14:59;8.20;99.90
18043;DHT22;9146;48.074;11.968;2022-09-17T02:17:33;8.30;99.90
18043;DHT22;9146;48.074;11.968;2022-09-17T02:20:01;8.30;99.90
18043;DHT22;9146;48.074;11.968;2022-09-17T02:22:33;8.30;99.90
18043;DHT22;9146;48.074;11.968;2022-09-17T02:25:07;8.30;99.90
18043;DHT22;9146;48.074;11.968;2022-09-17T02:27:48;8.30;99.90
18043;DHT22;9146;48.074;11.968;2022-09-17T02:30:17;8.30;99.90
18043;DHT22;9146;48.074;11.968;2022-09-17T02:32:45;8.30;99.90
18043;DHT22;9146;48.074;11.968;2022-09-17T02:35:13;8.40;99.90
18043;DHT22;9146;48.074;11.968;2022-09-17T02:37:41;8.30;99.90
18043;DHT22;9146;48.074;11.968;2022-09-17T02:40:09;8.30;99.90
18043;DHT22;9146;48.074;11.968;2022-09-17T02:42:51;8.30;99.90
18043;DHT22;9146;48.074;11.968;2022-09-17T02:45:29;8.30;99.90
18043;DHT22;9146;48.074;11.968;2022-09-17T02:48:13;8.30;99.90
18043;DHT22;9146;48.074;11.968;2022-09-17T02:50:56;8.30;99.90
18043;DHT22;9146;48.074;11.968;2022-09-17T02:53:35;8.40;99.90
18043;DHT22;9146;48.074;11.968;2022-09-17T02:56:10;8.40;99.90
18043;DHT22;9146;48.074;11.968;2022-09-17T02:58:45;8.40;99.90
18043;DHT22;9146;48.074;11.968;2022-09-17T03:01:21;8.40;99.90
18043;DHT22;9146;48.074;11.968;2022-09-17T03:03:53;8.40;99.90
18043;DHT22;9146;48.074;11.968;2022-09-17T03:06:21;8.40;99.90
18043;DHT22;9146;48.074;11.968;2022-09-17T03:08:48;8.40;99.90
18043;DHT22;9146;48.074;11.968;2022-09-17T03:11:15;8.40;99.90
18043;DHT22;9146;48.074;11.968;2022-09-17T03:13:42;8.40;99.90
18043;DHT22;9146;48.074;11.968;2022-09-17T03:16:09;8.40;99.90
18043;DHT22;9146;48.074;11.968;2022-09-17T03:18:36;8.30;99.90
18043;DHT22;9146;48.074;11.968;2022-09-17T03:21:04;8.30;99.90
18043;DHT22;9146;48.074;11.968;2022-09-17T03:23:31;8.20;99.90
18043;DHT22;9146;48.074;11.968;2022-09-17T03:25:59;8.20;99.90
18043;DHT22;9146;48.074;11.968;2022-09-17T03:28:25;8.20;99.90
18043;DHT22;9146;48.074;11.968;2022-09-17T03:30:52;8.10;99.90
18043;DHT22;9146;48.074;11.968;2022-09-17T03:33:19;8.10;99.90
18043;DHT22;9146;48.074;11.968;2022-09-17T03:35:46;8.10;99.90
18043;DHT22;9146;48.074;11.968;2022-09-17T03:38:15;8.10;99.90
18043;DHT22;9146;48.074;11.968;2022-09-17T03:40:42;8.10;99.90
18043;DHT22;9146;48.074;11.968;2022-09-17T03:43:09;8.10;99.90
18043;DHT22;9146;48.074;11.968;2022-09-17T03:45:36;8.00;99.90
18043;DHT22;9146;48.074;11.968;2022-09-17T03:48:03;8.00;99.90
18043;DHT22;9146;48.074;11.968;2022-09-17T03:50:30;7.90;99.90
18043;DHT22;9146;48.074;11.968;2022-09-17T03:52:57;7.90;99.90
18043;DHT22;9146;48.074;11.968;2022-09-17T03:55:26;7.90;99.90
18043;DHT22;9146;48.074;11.968;2022-09-17T03:57:52;7.90;99.90
18043;DHT22;9146;48.074;11.968;2022-09-17T04:00:20;7.90;99.90
18043;DHT22;9146;48.074;11.968;2022-09-17T04:02:47;7.90;99.90
18043;DHT22;9146;48.074;11.968;2022-09-17T04:05:14;7.90;99.90
18043;DHT22;9146;48.074;11.968;2022-09-17T04:07:41;7.90;99.90
18043;DHT22;9146;48.074;11.968;2022-09-17T04:10:08;7.90;99.90
18043;DHT22;9146;48.074;11.968;2022-09-17T04:12:36;7.90;99.90
18043;DHT22;9146;48.074;11.968;2022-09-17T04:15:04;7.90;99.90
18043;DHT22;9146;48.074;11.968;2022-09-17T04:17:31;7.90;99.90
18043;DHT22;9146;48.074;11.968;2022-09-17T04:19:58;7.80;99.90
18043;DHT22;9146;48.074;11.968;2022-09-17T04:22:25;7.80;99.90
18043;DHT22;9146;48.074;11.968;2022-09-17T04:24:52;7.80;99.90
18043;DHT22;9146;48.074;11.968;2022-09-17T04:27:19;7.80;99.90
18043;DHT22;9146;48.074;11.968;2022-09-17T04:29:47;7.80;99.90
18043;DHT22;9146;48.074;11.968;2022-09-17T04:32:14;7.80;99.90
18043;DHT22;9146;48.074;11.968;2022-09-17T04:34:41;7.80;99.90
18043;DHT22;9146;48.074;11.968;2022-09-17T04:37:08;7.70;99.90
18043;DHT22;9146;48.074;11.968;2022-09-17T04:39:35;7.70;99.90
18043;DHT22;9146;48.074;11.968;2022-09-17T04:42:02;7.70;99.90
18043;DHT22;9146;48.074;11.968;2022-09-17T04:44:29;7.70;99.90
18043;DHT22;9146;48.074;11.968;2022-09-17T04:46:58;7.70;99.90
18043;DHT22;9146;48.074;11.968;2022-09-17T04:49:26;7.80;99.90
18043;DHT22;9146;48.074;11.968;2022-09-17T04:51:56;7.70;99.90
18043;DHT22;9146;48.074;11.968;2022-09-17T04:54:24;7.70;99.90
18043;DHT22;9146;48.074;11.968;2022-09-17T04:56:51;7.70;99.90
18043;DHT22;9146;48.074;11.968;2022-09-17T04:59:18;7.70;99.90
18043;DHT22;9146;48.074;11.968;2022-09-17T05:01:47;7.70;99.90
18043;DHT22;9146;48.074;11.968;2022-09-17T05:04:20;7.60;99.90
18043;DHT22;9146;48.074;11.968;2022-09-17T05:06:51;7.60;99.90
18043;DHT22;9146;48.074;11.968;2022-09-17T05:09:18;7.60;99.90
18043;DHT22;9146;48.074;11.968;2022-09-17T05:11:45;7.50;99.90
18043;DHT22;9146;48.074;11.968;2022-09-17T05:14:12;7.50;99.90
18043;DHT22;9146;48.074;11.968;2022-09-17T05:16:39;7.60;99.90
18043;DHT22;9146;48.074;11.968;2022-09-17T05:19:06;7.60;99.90
18043;DHT22;9146;48.074;11.968;2022-09-17T05:21:35;7.60;99.90
18043;DHT22;9146;48.074;11.968;2022-09-17T05:24:02;7.50;99.90
18043;DHT22;9146;48.074;11.968;2022-09-17T05:26:29;7.50;99.90
18043;DHT22;9146;48.074;11.968;2022-09-17T05:28:56;7.50;99.90
18043;DHT22;9146;48.074;11.968;2022-09-17T05:31:23;7.60;99.90
18043;DHT22;9146;48.074;11.968;2022-09-17T05:33:50;7.60;99.90
18043;DHT22;9146;48.074;11.968;2022-09-17T05:36:16;7.60;99.90
18043;DHT22;9146;48.074;11.968;2022-09-17T05:38:45;7.60;99.90
18043;DHT22;9146;48.074;11.968;2022-09-17T05:41:12;7.60;99.90
18043;DHT22;9146;48.074;11.968;2022-09-17T05:43:41;7.70;99.90
18043;DHT22;9146;48.074;11.968;2022-09-17T05:46:08;7.70;99.90
18043;DHT22;9146;48.074;11.968;2022-09-17T05:48:35;7.70;99.90
18043;DHT22;9146;48.074;11.968;2022-09-17T05:51:02;7.80;99.90
18043;DHT22;9146;48.074;11.968;2022-09-17T05:53:29;7.80;99.90
18043;DHT22;9146;48.074;11.968;2022-09-17T05:55:57;7.80;99.90
18043;DHT22;9146;48.074;11.968;2022-09-17T05:58:25;7.90;99.90
18043;DHT22;9146;48.074;11.968;2022-09-17T06:00:53;7.90;99.90
18043;DHT22;9146;48.074;11.968;2022-09-17T06:03:20;8.00;99.90
18043;DHT22;9146;48.074;11.968;2022-09-17T06:05:52;8.00;99.90
18043;DHT22;9146;48.074;11.968;2022-09-17T06:08:20;8.10;99.90
18043;DHT22;9146;48.074;11.968;2022-09-17T06:10:47;8.10;99.90
18043;DHT22;9146;48.074;11.968;2022-09-17T06:13:15;8.20;99.90
18043;DHT22;9146;48.074;11.968;2022-09-17T06:15:42;8.20;99.90
18043;DHT22;9146;48.074;11.968;2022-09-17T06:18:14;8.30;99.90
18043;DHT22;9146;48.074;11.968;2022-09-17T06:20:41;8.30;99.90
18043;DHT22;9146;48.074;11.968;2022-09-17T06:23:08;8.30;99.90
18043;DHT22;9146;48.074;11.968;2022-09-17T06:25:35;8.30;99.90
18043;DHT22;9146;48.074;11.968;2022-09-17T06:28:02;8.40;99.90
18043;DHT22;9146;48.074;11.968;2022-09-17T06:30:30;8.40;99.90
18043;DHT22;9146;48.074;11.968;2022-09-17T06:32:59;8.50;99.90
18043;DHT22;9146;48.074;11.968;2022-09-17T06:35:27;8.60;99.90
18043;DHT22;9146;48.074;11.968;2022-09-17T06:37:53;8.70;99.90
18043;DHT22;9146;48.074;11.968;2022-09-17T06:40:20;8.70;99.90
18043;DHT22;9146;48.074;11.968;2022-09-17T06:42:48;8.80;99.90
18043;DHT22;9146;48.074;11.968;2022-09-17T06:45:15;8.90;99.90
18043;DHT22;9146;48.074;11.968;2022-09-17T06:47:43;8.90;99.90
18043;DHT22;9146;48.074;11.968;2022-09-17T06:50:10;9.00;99.90
18043;DHT22;9146;48.074;11.968;2022-09-17T06:52:37;9.00;99.90
18043;DHT22;9146;48.074;11.968;2022-09-17T06:55:04;9.10;99.90
18043;DHT22;9146;48.074;11.968;2022-09-17T06:57:31;9.10;99.90
18043;DHT22;9146;48.074;11.968;2022-09-17T06:59:58;9.10;99.90
18043;DHT22;9146;48.074;11.968;2022-09-17T07:02:26;9.20;99.90
18043;DHT22;9146;48.074;11.968;2022-09-17T07:04:54;9.20;99.90
18043;DHT22;9146;48.074;11.968;2022-09-17T07:07:21;9.20;99.90
18043;DHT22;9146;48.074;11.968;2022-09-17T07:09:48;9.20;99.90
18043;DHT22;9146;48.074;11.968;2022-09-17T07:12:15;9.20;99.90
18043;DHT22;9146;48.074;11.968;2022-09-17T07:14:42;9.10;99.90
18043;DHT22;9146;48.074;11.968;2022-09-17T07:17:09;9.10;99.90
18043;DHT22;9146;48.074;11.968;2022-09-17T07:19:36;9.10;99.90
18043;DHT22;9146;48.074;11.968;2022-09-17T07:22:04;9.20;99.90
18043;DHT22;9146;48.074;11.968;2022-09-17T07:24:31;9.30;99.90
18043;DHT22;9146;48.074;11.968;2022-09-17T07:26:58;9.40;99.90
18043;DHT22;9146;48.074;11.968;2022-09-17T07:29:26;9.40;99.90
18043;DHT22;9146;48.074;11.968;2022-09-17T07:31:58;9.50;99.90
18043;DHT22;9146;48.074;11.968;2022-09-17T07:34:27;9.40;99.90
18043;DHT22;9146;48.074;11.968;2022-09-17T07:36:54;9.40;99.90
18043;DHT22;9146;48.074;11.968;2022-09-17T07:39:23;9.30;99.90
18043;DHT22;9146;48.074;11.968;2022-09-17T07:41:50;9.30;99.90
18043;DHT22;9146;48.074;11.968;2022-09-17T07:44:16;9.20;99.90
18043;DHT22;9146;48.074;11.968;2022-09-17T07:46:43;9.30;99.90
18043;DHT22;9146;48.074;11.968;2022-09-17T07:49:10;9.20;99.90
18043;DHT22;9146;48.074;11.968;2022-09-17T07:51:37;9.30;99.90
18043;DHT22;9146;48.074;11.968;2022-09-17T07:54:04;9.30;99.90
18043;DHT22;9146;48.074;11.968;2022-09-17T07:56:33;9.30;99.90
18043;DHT22;9146;48.074;11.968;2022-09-17T07:59:01;9.30;99.90
18043;DHT22;9146;48.074;11.968;2022-09-17T08:01:30;9.40;99.90
18043;DHT22;9146;48.074;11.968;2022-09-17T08:03:59;9.50;99.90
18043;DHT22;9146;48.074;11.968;2022-09-17T08:06:26;9.60;99.90
18043;DHT22;9146;48.074;11.968;2022-09-17T08:08:54;9.80;99.90
18043;DHT22;9146;48.074;11.968;2022-09-17T08:11:22;10.10;99.90
18043;DHT22;9146;48.074;11.968;2022-09-17T08:13:52;10.40;99.90
18043;DHT22;9146;48.074;11.968;2022-09-17T08:16:20;10.50;99.90
18043;DHT22;9146;48.074;11.968;2022-09-17T08:18:48;10.60;99.90
18043;DHT22;9146;48.074;11.968;2022-09-17T08:21:16;10.70;99.90
18043;DHT22;9146;48.074;11.968;2022-09-17T08:23:44;10.80;99.90
18043;DHT22;9146;48.074;11.968;2022-09-17T08:26:12;10.90;99.90
18043;DHT22;9146;48.074;11.968;2022-09-17T08:28:43;11.10;99.90
18043;DHT22;9146;48.074;11.968;2022-09-17T08:31:12;11.20;99.90
18043;DHT22;9146;48.074;11.968;2022-09-17T08:33:39;11.10;99.90
18043;DHT22;9146;48.074;11.968;2022-09-17T08:36:09;11.10;99.90
18043;DHT22;9146;48.074;11.968;2022-09-17T08:38:37;11.20;99.90
18043;DHT22;9146;48.074;11.968;2022-09-17T08:41:16;11.20;99.90
18043;DHT22;9146;48.074;11.968;2022-09-17T08:43:49;11.30;99.90
18043;DHT22;9146;48.074;11.968;2022-09-17T08:46:19;11.30;99.90
18043;DHT22;9146;48.074;11.968;2022-09-17T08:48:50;11.30;99.90
18043;DHT22;9146;48.074;11.968;2022-09-17T08:51:26;11.50;99.90
18043;DHT22;9146;48.074;11.968;2022-09-17T08:54:02;11.60;99.90
18043;DHT22;9146;48.074;11.968;2022-09-17T08:56:34;11.80;99.90
18043;DHT22;9146;48.074;11.968;2022-09-17T08:59:10;11.90;99.90
18043;DHT22;9146;48.074;11.968;2022-09-17T09:01:50;11.90;99.90
18043;DHT22;9146;48.074;11.968;2022-09-17T09:04:53;11.90;99.90
18043;DHT22;9146;48.074;11.968;2022-09-17T09:07:25;11.80;99.90
18043;DHT22;9146;48.074;11.968;2022-09-17T09:10:02;11.60;99.90
18043;DHT22;9146;48.074;11.968;2022-09-17T09:12:33;11.40;99.90
18043;DHT22;9146;48.074;11.968;2022-09-17T09:15:02;11.20;99.90
18043;DHT22;9146;48.074;11.968;2022-09-17T09:17:37;11.10;99.90
18043;DHT22;9146;48.074;11.968;2022-09-17T09:20:12;11.10;99.90
18043;DHT22;9146;48.074;11.968;2022-09-17T09:22:46;11.20;99.90
18043;DHT22;9146;48.074;11.968;2022-09-17T09:25:22;11.20;99.90
18043;DHT22;9146;48.074;11.968;2022-09-17T09:28:00;11.20;99.90
18043;DHT22;9146;48.074;11.968;2022-09-17T09:30:36;11.10;99.90
18043;DHT22;9146;48.074;11.968;2022-09-17T09:33:11;11.10;99.90
18043;DHT22;9146;48.074;11.968;2022-09-17T09:35:41;11.00;99.90
18043;DHT22;9146;48.074;11.968;2022-09-17T09:38:17;10.90;99.90
18043;DHT22;9146;48.074;11.968;2022-09-17T09:40:52;10.70;99.90
18043;DHT22;9146;48.074;11.968;2022-09-17T09:43:24;10.40;99.90
18043;DHT22;9146;48.074;11.968;2022-09-17T09:46:13;9.90;99.90
18043;DHT22;9146;48.074;11.968;2022-09-17T09:48:48;9.60;99.90
18043;DHT22;9146;48.074;11.968;2022-09-17T09:51:33;9.40;99.90
18043;DHT22;9146;48.074;11.968;2022-09-17T09:54:17;9.40;99.90
18043;DHT22;9146;48.074;11.968;2022-09-17T09:56:55;9.30;99.90
18043;DHT22;9146;48.074;11.968;2022-09-17T09:59:23;9.30;99.90
18043;DHT22;9146;48.074;11.968;2022-09-17T10:01:50;9.20;99.90
18043;DHT22;9146;48.074;11.968;2022-09-17T10:04:21;9.10;99.90
18043;DHT22;9146;48.074;11.968;2022-09-17T10:06:51;9.00;99.90
18043;DHT22;9146;48.074;11.968;2022-09-17T10:09:19;9.00;99.90
18043;DHT22;9146;48.074;11.968;2022-09-17T10:12:01;8.70;99.90
18043;DHT22;9146;48.074;11.968;2022-09-17T10:14:30;8.60;99.90
18043;DHT22;9146;48.074;11.968;2022-09-17T10:17:12;8.50;99.90
18043;DHT22;9146;48.074;11.968;2022-09-17T10:19:42;8.40;99.90
18043;DHT22;9146;48.074;11.968;2022-09-17T10:22:23;8.40;99.90
18043;DHT22;9146;48.074;11.968;2022-09-17T10:24:52;8.30;99.90
18043;DHT22;9146;48.074;11.968;2022-09-17T10:27:22;8.30;99.90
18043;DHT22;9146;48.074;11.968;2022-09-17T10:29:53;8.20;99.90
18043;DHT22;9146;48.074;11.968;2022-09-17T10:32:23;8.20;99.90
18043;DHT22;9146;48.074;11.968;2022-09-17T10:35:00;8.10;99.90
18043;DHT22;9146;48.074;11.968;2022-09-17T10:37:34;8.10;99.90
18043;DHT22;9146;48.074;11.968;2022-09-17T10:40:26;8.10;99.90
18043;DHT22;9146;48.074;11.968;2022-09-17T10:43:16;8.20;99.90
18043;DHT22;9146;48.074;11.968;2022-09-17T10:45:45;8.30;99.90
18043;DHT22;9146;48.074;11.968;2022-09-17T10:48:21;8.30;99.90
18043;DHT22;9146;48.074;11.968;2022-09-17T10:50:51;8.30;99.90
18043;DHT22;9146;48.074;11.968;2022-09-17T10:53:20;8.30;99.90
18043;DHT22;9146;48.074;11.968;2022-09-17T10:55:51;8.50;99.90
18043;DHT22;9146;48.074;11.968;2022-09-17T10:58:29;8.50;99.90
18043;DHT22;9146;48.074;11.968;2022-09-17T11:01:06;8.60;99.90
18043;DHT22;9146;48.074;11.968;2022-09-17T11:03:54;8.60;99.90
18043;DHT22;9146;48.074;11.968;2022-09-17T11:09:44;8.70;99.90
18043;DHT22;9146;48.074;11.968;2022-09-17T11:12:27;8.70;99.90
18043;DHT22;9146;48.074;11.968;2022-09-17T11:15:00;8.70;99.90
18043;DHT22;9146;48.074;11.968;2022-09-17T11:17:45;8.60;99.90
18043;DHT22;9146;48.074;11.968;2022-09-17T11:20:25;8.60;99.90
18043;DHT22;9146;48.074;11.968;2022-09-17T11:23:07;8.60;99.90
18043;DHT22;9146;48.074;11.968;2022-09-17T11:25:45;8.70;99.90
18043;DHT22;9146;48.074;11.968;2022-09-17T11:28:23;8.70;99.90
18043;DHT22;9146;48.074;11.968;2022-09-17T11:31:05;8.70;99.90
18043;DHT22;9146;48.074;11.968;2022-09-17T11:33:49;8.70;99.90
18043;DHT22;9146;48.074;11.968;2022-09-17T11:36:21;8.60;99.90
18043;DHT22;9146;48.074;11.968;2022-09-17T11:38:52;8.70;99.90
18043;DHT22;9146;48.074;11.968;2022-09-17T11:41:24;8.70;99.90
18043;DHT22;9146;48.074;11.968;2022-09-17T11:44:01;8.70;99.90
18043;DHT22;9146;48.074;11.968;2022-09-17T11:46:33;8.70;99.90
18043;DHT22;9146;48.074;11.968;2022-09-17T11:49:03;8.60;99.90
18043;DHT22;9146;48.074;11.968;2022-09-17T11:51:33;8.60;99.90
18043;DHT22;9146;48.074;11.968;2022-09-17T11:54:06;8.60;99.90
18043;DHT22;9146;48.074;11.968;2022-09-17T11:56:37;8.50;99.90
18043;DHT22;9146;48.074;11.968;2022-09-17T11:59:12;8.50;99.90
18043;DHT22;9146;48.074;11.968;2022-09-17T12:01:46;8.50;99.90
18043;DHT22;9146;48.074;11.968;2022-09-17T12:04:30;8.30;99.90
18043;DHT22;9146;48.074;11.968;2022-09-17T12:07:03;8.20;99.90
18043;DHT22;9146;48.074;11.968;2022-09-17T12:09:39;8.10;99.90
18043;DHT22;9146;48.074;11.968;2022-09-17T12:12:13;8.10;99.90
18043;DHT22;9146;48.074;11.968;2022-09-17T12:14:45;8.00;99.90
18043;DHT22;9146;48.074;11.968;2022-09-17T12:17:18;8.00;99.90
18043;DHT22;9146;48.074;11.968;2022-09-17T12:19:48;8.10;99.90
18043;DHT22;9146;48.074;11.968;2022-09-17T12:22:20;8.10;99.90
18043;DHT22;9146;48.074;11.968;2022-09-17T12:24:51;8.20;99.90
18043;DHT22;9146;48.074;11.968;2022-09-17T12:27:28;8.30;99.90
18043;DHT22;9146;48.074;11.968;2022-09-17T12:30:06;8.30;99.90
18043;DHT22;9146;48.074;11.968;2022-09-17T12:32:46;8.40;99.90
18043;DHT22;9146;48.074;11.968;2022-09-17T12:35:26;8.50;99.90
18043;DHT22;9146;48.074;11.968;2022-09-17T12:38:08;8.60;99.90
18043;DHT22;9146;48.074;11.968;2022-09-17T12:40:43;8.90;99.90
18043;DHT22;9146;48.074;11.968;2022-09-17T12:43:33;9.20;99.90
18043;DHT22;9146;48.074;11.968;2022-09-17T12:46:12;9.40;99.90
18043;DHT22;9146;48.074;11.968;2022-09-17T12:49:02;9.70;99.90
18043;DHT22;9146;48.074;11.968;2022-09-17T12:51:50;10.00;99.90
18043;DHT22;9146;48.074;11.968;2022-09-17T12:54:33;10.00;99.90
18043;DHT22;9146;48.074;11.968;2022-09-17T12:57:17;9.90;99.90
18043;DHT22;9146;48.074;11.968;2022-09-17T12:59:51;9.90;99.90
18043;DHT22;9146;48.074;11.968;2022-09-17T13:02:25;9.80;99.90
18043;DHT22;9146;48.074;11.968;2022-09-17T13:05:29;9.80;99.90
18043;DHT22;9146;48.074;11.968;2022-09-17T13:08:34;10.00;99.90
18043;DHT22;9146;48.074;11.968;2022-09-17T13:11:18;10.00;99.90
18043;DHT22;9146;48.074;11.968;2022-09-17T13:13:57;10.10;99.90
18043;DHT22;9146;48.074;11.968;2022-09-17T13:16:33;10.30;99.90
18043;DHT22;9146;48.074;11.968;2022-09-17T13:19:10;10.30;99.90
18043;DHT22;9146;48.074;11.968;2022-09-17T13:21:46;10.30;99.90
18043;DHT22;9146;48.074;11.968;2022-09-17T13:24:18;10.20;99.90
18043;DHT22;9146;48.074;11.968;2022-09-17T13:26:46;10.20;99.90
18043;DHT22;9146;48.074;11.968;2022-09-17T13:32:41;10.20;99.90
18043;DHT22;9146;48.074;11.968;2022-09-17T13:38:11;10.10;99.90
18043;DHT22;9146;48.074;11.968;2022-09-17T13:40:39;10.30;99.90
18043;DHT22;9146;48.074;11.968;2022-09-17T13:43:08;10.40;99.90
18043;DHT22;9146;48.074;11.968;2022-09-17T13:46:06;10.50;99.90
18043;DHT22;9146;48.074;11.968;2022-09-17T13:48:42;10.60;99.90
18043;DHT22;9146;48.074;11.968;2022-09-17T13:51:47;10.50;99.90
18043;DHT22;9146;48.074;11.968;2022-09-17T13:54:16;10.60;99.90
18043;DHT22;9146;48.074;11.968;2022-09-17T13:56:47;10.60;99.90
18043;DHT22;9146;48.074;11.968;2022-09-17T13:59:18;10.60;99.90
18043;DHT22;9146;48.074;11.968;2022-09-17T14:01:59;10.70;99.90
18043;DHT22;9146;48.074;11.968;2022-09-17T14:04:44;10.70;99.90
18043;DHT22;9146;48.074;11.968;2022-09-17T14:07:32;10.70;99.90
18043;DHT22;9146;48.074;11.968;2022-09-17T14:10:00;10.80;99.90
18043;DHT22;9146;48.074;11.968;2022-09-17T14:12:50;10.80;99.90
18043;DHT22;9146;48.074;11.968;2022-09-17T14:18:56;11.00;99.90
18043;DHT22;9146;48.074;11.968;2022-09-17T14:21:29;11.00;99.90
18043;DHT22;9146;48.074;11.968;2022-09-17T14:23:59;10.90;99.90
18043;DHT22;9146;48.074;11.968;2022-09-17T14:27:08;10.90;99.90
18043;DHT22;9146;48.074;11.968;2022-09-17T14:30:05;10.90;99.90
18043;DHT22;9146;48.074;11.968;2022-09-17T14:32:38;10.90;99.90
18043;DHT22;9146;48.074;11.968;2022-09-17T14:35:16;10.90;99.90
18043;DHT22;9146;48.074;11.968;2022-09-17T14:37:51;10.90;99.90
18043;DHT22;9146;48.074;11.968;2022-09-17T14:40:20;10.90;99.90
18043;DHT22;9146;48.074;11.968;2022-09-17T14:42:52;10.90;99.90
18043;DHT22;9146;48.074;11.968;2022-09-17T14:45:31;10.80;99.90
18043;DHT22;9146;48.074;11.968;2022-09-17T14:48:27;10.80;99.90
18043;DHT22;9146;48.074;11.968;2022-09-17T14:51:24;10.70;99.90
18043;DHT22;9146;48.074;11.968;2022-09-17T14:54:22;10.70;99.90
18043;DHT22;9146;48.074;11.968;2022-09-17T14:56:53;10.80;99.90
18043;DHT22;9146;48.074;11.968;2022-09-17T14:59:36;11.00;99.90
18043;DHT22;9146;48.074;11.968;2022-09-17T15:02:25;11.20;99.90
18043;DHT22;9146;48.074;11.968;2022-09-17T15:04:53;11.20;99.90
18043;DHT22;9146;48.074;11.968;2022-09-17T15:07:22;11.10;99.90
18043;DHT22;9146;48.074;11.968;2022-09-17T15:09:49;11.10;99.90
18043;DHT22;9146;48.074;11.968;2022-09-17T15:12:24;11.20;99.90
18043;DHT22;9146;48.074;11.968;2022-09-17T15:14:54;11.20;99.90
18043;DHT22;9146;48.074;11.968;2022-09-17T15:17:22;11.20;99.90
18043;DHT22;9146;48.074;11.968;2022-09-17T15:19:51;11.20;99.90
18043;DHT22;9146;48.074;11.968;2022-09-17T15:22:24;11.20;99.90
18043;DHT22;9146;48.074;11.968;2022-09-17T15:24:55;11.20;99.90
18043;DHT22;9146;48.074;11.968;2022-09-17T15:27:27;11.20;99.90
18043;DHT22;9146;48.074;11.968;2022-09-17T15:29:57;11.10;99.90
18043;DHT22;9146;48.074;11.968;2022-09-17T15:32:26;11.10;99.90
18043;DHT22;9146;48.074;11.968;2022-09-17T15:35:21;11.00;99.90
18043;DHT22;9146;48.074;11.968;2022-09-17T15:37:51;11.00;99.90
18043;DHT22;9146;48.074;11.968;2022-09-17T15:40:28;11.00;99.90
18043;DHT22;9146;48.074;11.968;2022-09-17T15:43:15;11.00;99.90
18043;DHT22;9146;48.074;11.968;2022-09-17T15:45:42;11.00;99.90
18043;DHT22;9146;48.074;11.968;2022-09-17T15:48:21;11.00;99.90
18043;DHT22;9146;48.074;11.968;2022-09-17T15:50:50;10.90;99.90
18043;DHT22;9146;48.074;11.968;2022-09-17T15:53:24;10.80;99.90
18043;DHT22;9146;48.074;11.968;2022-09-17T15:56:00;10.80;99.90
18043;DHT22;9146;48.074;11.968;2022-09-17T15:58:30;10.70;99.90
18043;DHT22;9146;48.074;11.968;2022-09-17T16:04:20;10.50;99.90
18043;DHT22;9146;48.074;11.968;2022-09-17T16:06:50;10.40;99.90
18043;DHT22;9146;48.074;11.968;2022-09-17T16:09:40;10.20;99.90
18043;DHT22;9146;48.074;11.968;2022-09-17T16:12:10;10.10;99.90
18043;DHT22;9146;48.074;11.968;2022-09-17T16:14:39;10.00;99.90
18043;DHT22;9146;48.074;11.968;2022-09-17T16:17:23;9.90;99.90
18043;DHT22;9146;48.074;11.968;2022-09-17T16:19:52;9.80;99.90
18043;DHT22;9146;48.074;11.968;2022-09-17T16:22:20;9.70;99.90
18043;DHT22;9146;48.074;11.968;2022-09-17T16:24:48;9.70;99.90
18043;DHT22;9146;48.074;11.968;2022-09-17T16:27:18;9.60;99.90
18043;DHT22;9146;48.074;11.968;2022-09-17T16:29:46;9.60;99.90
18043;DHT22;9146;48.074;11.968;2022-09-17T16:32:13;9.50;99.90
18043;DHT22;9146;48.074;11.968;2022-09-17T16:34:40;9.50;99.90
18043;DHT22;9146;48.074;11.968;2022-09-17T16:37:08;9.50;99.90
18043;DHT22;9146;48.074;11.968;2022-09-17T16:39:36;9.50;99.90